KCFE

Buffalo Municipal Airport

Buffalo, Minnesota, USA
METAR KCFE 250515Z AUTO 13005KT 10SM CLR 21/16 A2987 RMK AO2 T02060163
Observed Flight Rules
May-25 @ 05:15 UTC (10 minutes ago) Visual Flight Rules
Wind Visibility Clouds
130° at 5 knots 10 miles
  • Clear skies
Temperatures Readings
Current 21°C / 70°F
Dewpoint 16°C / 61°F
Humidity 73%
Altimeter 29.87" Hg
Pressure 1012 hPa
Elevation 295
METAR KCFE 250515Z AUTO 13005KT 10SM CLR 21/16 A2987 RMK AO2 T02060163
Observed Flight Rules
May-25 @ 05:15 UTC
(10 minutes ago)
VFR
Wind Visibility
130° at 5 knots 10 miles
Clouds
  • Clear skies
Temperature Dewpoint
21°C / 70°F 16°C / 61°F
Humidity Altimeter Pressure
73% 29.87" Hg 1012 hPa